Airfield :







YOU CAN JOIN US ON...

 
LOGIN :

Register | Disclaimer

   EN    FR    IT 

 









Legend :    VFR   Marginal VFR   IFR   Intensive IFR   Very Intensive IFR
Visi :
Ceiling :
>= 8 km
>= 3000ft
5 to 8 km
1000 to 3000 ft
1500m to 5 km
500 to 1000 ft
800 to 1500m
200 to 500 ft
< 800m
< 200 ft
Symbols :   Thunderstorms  Fog  Heavy snow  Heavy precipitations  Wind > 20 kt






- Airport Elevation : 1166 ft


KMPV - Edward F Knapp State

CURRENT METAR :
  • 250717Z AUTO 00000KT 4SM -SN BKN029 OVC040 M09/M12 A2979 RMK AO2 P0000 T10941122 TSNO

EXPIRED METARs :
  • 250651Z AUTO 00000KT 4SM -SN OVC048 M09/M12 A2979 RMK AO2 SLP111 P0000 T10941122
  • 250611Z AUTO 00000KT 3SM -SN BKN033 OVC060 M09/M13 A2979 RMK AO2 P0000 T10941128
  • 250600Z AUTO 00000KT 2SM -SN OVC031 M09/M13 A2979 RMK AO2 P0000 T10941128
  • 250536Z AUTO 00000KT 1 1/2SM -SN OVC023 M09/M13 A2979 RMK AO2 P0000 T10941128
  • 250526Z AUTO 00000KT 2SM -SN OVC027 M10/M13 A2980 RMK AO2 P0000 T11001128
  • 250514Z AUTO 00000KT 2SM -SN OVC033 M10/M13 A2980 RMK AO2 P0000 T11001128
  • 250458Z AUTO 00000KT 4SM -SN OVC037 M10/M13 A2981 RMK AO2 P0000 T11001128
  • 250451Z AUTO 00000KT 2 1/2SM -SN OVC039 M10/M13 A2981 RMK AO2 SLP120 P0000 T11001128 410781233

TAF KMPV
Valid from the 25 at 06:00 until the 26 at 06:00 UTC


250538Z 2506/2606 00000KT 1 1/2SM -SN BR OVC028
FM251200 17003KT 4SM -SN BR OVC025
FM251400 VRB04KT P6SM BKN040
FM251800 28009KT P6SM BKN050
FM252000 27007KT 6SM BR BKN035
KZBW FIR / North America



MET'MAP, your aeronautical weather chart ! - Copyright ORBIFLY December 2007 - Disclaimer

ORBIFLY MET'MAP TEAM :

Programming & Development : Alexandra Zaïnal
Original concept : Baudouin d'Aumeries
Technical & hardware support : Manuel Goepfert
Assistance : Marc-Olivier Méhu

Contact : metmap@orbifly.com




SOURCES & CREDITS :

   NOAA